Track Шупикова Дарья

Time Latitude Longitude Accuracy (66% radius in meters) Altitude (meters) Speed (km/hour) Bearing (degrees) Battery (%) GPS flag
10:25:48 60.370924 29.556302 16 35 0 133.56169128418 37 1 delete
10:25:38 60.370939 29.556303 16 35 0 133.56169128418 37 1 delete
10:25:36 60.370946 29.556296 12 37 0 133.56169128418 37 1 delete
10:25:27 60.370959 29.556229 12 40 0 229.82061767578 37 1 delete
10:25:16 60.370948 29.556199 16 41 0 229.82061767578 37 1 delete
10:25:15 60.370950 29.556205 16 42 0 229.82061767578 37 1 delete
10:25:05 60.370982 29.556279 16 64 0 212.04742431641 37 1 delete
10:24:57 60.371029 29.556313 16 64 0 225.1092376709 37 1 delete
10:24:55 60.371045 29.556333 16 66 0 272.77307128906 37 1 delete
10:24:46 60.371079 29.556326 16 73 0 313.17343139648 37 1 delete
10:24:44 60.371059 29.556337 16 75 0 313.17343139648 37 1 delete
10:24:42 60.371031 29.556361 16 72 0 313.27160644531 37 1 delete
10:24:38 60.370984 29.556392 16 73 0 312.10076904297 37 1 delete
10:24:33 60.370941 29.556463 16 71 0 99.623641967773 37 1 delete
10:24:23 60.370941 29.556463 16 63 0 99.623641967773 37 1 delete
10:24:12 60.370944 29.556389 16 74 0 99.623641967773 37 1 delete
10:24:01 60.370966 29.556460 16 80 0 99.623641967773 37 1 delete
10:23:51 60.370973 29.556473 12 82 0 99.623641967773 37 1 delete
10:23:40 60.370960 29.556501 12 80 0 99.623641967773 37 1 delete
10:23:29 60.370950 29.556483 12 78 0 145.48808288574 37 1 delete
10:23:19 60.370937 29.556474 16 79 0 151.90721130371 37 1 delete
10:23:08 60.370942 29.556438 16 82 0 141.98329162598 37 1 delete
10:22:57 60.370942 29.556445 16 92 0 141.98329162598 37 1 delete
10:22:47 60.370938 29.556443 16 98 0 99.242042541504 37 1 delete
10:22:46 60.370936 29.556439 16 97 0 99.242042541504 37 1 delete
10:22:37 60.370919 29.556350 16 78 0 116.2942276001 37 1 delete
10:22:36 60.370916 29.556341 16 76 0 116.2942276001 37 1 delete
10:22:30 60.370900 29.556262 12 79 0 116.28549194336 37 1 delete
10:22:25 60.370883 29.556213 24 70 0 193.02401733398 37 1 delete
10:22:14 60.370844 29.556168 12 69 0 193.02401733398 37 1 delete
10:22:03 60.370839 29.556173 16 58 0 201.09205627441 37 1 delete
10:21:53 60.370855 29.556196 16 66 0 158.68727111816 37 1 delete
10:21:52 60.370857 29.556218 12 66 0 158.68727111816 37 1 delete
10:21:42 60.370850 29.556278 12 65 0 158.68727111816 37 1 delete
10:21:39 60.370866 29.556309 12 69 0 158.68727111816 37 1 delete
10:21:34 60.370916 29.556328 16 71 0.23693245649338 133.00357055664 37 1 delete
10:21:31 60.370953 29.556286 24 70 0 230.20153808594 37 1 delete
10:21:25 60.370969 29.556305 16 77 0 230.20153808594 37 1 delete
10:21:21 60.371007 29.556365 16 77 0 92.965454101562 37 1 delete
10:21:10 60.371015 29.556370 16 79 0 92.965454101562 37 1 delete
10:20:59 60.370997 29.556399 16 73 0 92.965454101562 37 1 delete
10:20:55 60.370995 29.556390 16 73 0 92.965454101562 37 1 delete
10:20:49 60.370988 29.556389 24 83 0 92.965454101562 37 1 delete
10:20:38 60.370962 29.556408 16 81 0 92.965454101562 37 1 delete
10:20:37 60.370954 29.556429 16 76 0 92.965454101562 37 1 delete
10:20:29 60.370910 29.556372 12 77 0 91.910453796387 37 1 delete
10:20:28 60.370900 29.556353 16 74 0 134.8458404541 37 1 delete
10:20:17 60.370880 29.556261 12 74 0 174.87745666504 37 1 delete
10:20:06 60.370883 29.556245 16 68 0 174.87745666504 37 1 delete
10:20:00 60.370868 29.556301 16 74 0 228.48338317871 37 1 delete